Terminal Aerodrome Forecast
Issued by NWS

Home | Current Version | Previous Version | Text Only | Print | Product List | Glossary On
Versions: 1 2 3 4 5 6 7 8 9 10 11 12 13 14 15 16 17 18 19
000
FTUS43 KDTX 210536
TAFMBS
TAF
KMBS 210536Z 2106/2206 32008KT P6SM OVC015
     FM211300 36012G21KT P6SM OVC025
     FM211800 01015KT P6SM BKN050
     FM220000 04010KT P6SM SCT050=

USA.gov is the U.S. government's official web portal to all federal, state and local government web resources and services.